sensor_id;sensor_type;location;lat;lon;timestamp;P1;durP1;ratioP1;P2;durP2;ratioP2
43823;SDS011;29470;53.550;9.926;2023-01-26T00:04:44;63.00;;;21.00;;
43823;SDS011;29470;53.550;9.926;2023-01-26T00:09:47;75.90;;;22.48;;
43823;SDS011;29470;53.550;9.926;2023-01-26T00:14:50;61.22;;;20.38;;
43823;SDS011;29470;53.550;9.926;2023-01-26T00:19:55;64.65;;;20.85;;
43823;SDS011;29470;53.550;9.926;2023-01-26T00:24:59;64.00;;;22.15;;
43823;SDS011;29470;53.550;9.926;2023-01-26T00:30:02;66.93;;;21.52;;
43823;SDS011;29470;53.550;9.926;2023-01-26T00:35:07;62.75;;;20.40;;
43823;SDS011;29470;53.550;9.926;2023-01-26T00:40:10;69.78;;;22.17;;
43823;SDS011;29470;53.550;9.926;2023-01-26T00:45:14;64.43;;;21.25;;
43823;SDS011;29470;53.550;9.926;2023-01-26T00:50:19;68.68;;;22.42;;
43823;SDS011;29470;53.550;9.926;2023-01-26T00:55:22;65.18;;;21.30;;
43823;SDS011;29470;53.550;9.926;2023-01-26T01:00:34;69.75;;;21.55;;
43823;SDS011;29470;53.550;9.926;2023-01-26T01:05:40;66.85;;;22.50;;
43823;SDS011;29470;53.550;9.926;2023-01-26T01:10:46;67.85;;;22.20;;
43823;SDS011;29470;53.550;9.926;2023-01-26T01:15:48;72.70;;;23.20;;
43823;SDS011;29470;53.550;9.926;2023-01-26T01:20:53;70.32;;;21.77;;
43823;SDS011;29470;53.550;9.926;2023-01-26T01:25:56;74.30;;;22.02;;
43823;SDS011;29470;53.550;9.926;2023-01-26T01:31:02;70.80;;;22.85;;
43823;SDS011;29470;53.550;9.926;2023-01-26T01:36:07;68.90;;;22.75;;
43823;SDS011;29470;53.550;9.926;2023-01-26T01:41:12;63.03;;;21.40;;
43823;SDS011;29470;53.550;9.926;2023-01-26T01:46:17;72.72;;;22.17;;
43823;SDS011;29470;53.550;9.926;2023-01-26T01:51:31;73.85;;;22.30;;
43823;SDS011;29470;53.550;9.926;2023-01-26T01:56:36;73.30;;;23.73;;
43823;SDS011;29470;53.550;9.926;2023-01-26T02:01:42;71.05;;;23.33;;
43823;SDS011;29470;53.550;9.926;2023-01-26T02:06:47;64.20;;;21.77;;
43823;SDS011;29470;53.550;9.926;2023-01-26T02:11:51;63.30;;;22.60;;
43823;SDS011;29470;53.550;9.926;2023-01-26T02:16:54;71.65;;;22.65;;
43823;SDS011;29470;53.550;9.926;2023-01-26T02:21:59;66.85;;;21.48;;
43823;SDS011;29470;53.550;9.926;2023-01-26T02:27:10;69.45;;;21.70;;
43823;SDS011;29470;53.550;9.926;2023-01-26T02:32:13;63.53;;;19.83;;
43823;SDS011;29470;53.550;9.926;2023-01-26T02:37:16;68.75;;;20.95;;
43823;SDS011;29470;53.550;9.926;2023-01-26T02:42:21;65.68;;;19.90;;
43823;SDS011;29470;53.550;9.926;2023-01-26T02:47:43;67.22;;;19.88;;
43823;SDS011;29470;53.550;9.926;2023-01-26T02:52:46;64.15;;;19.83;;
43823;SDS011;29470;53.550;9.926;2023-01-26T03:03:00;57.65;;;19.80;;
43823;SDS011;29470;53.550;9.926;2023-01-26T03:08:04;65.05;;;19.83;;
43823;SDS011;29470;53.550;9.926;2023-01-26T03:13:11;65.50;;;19.55;;
43823;SDS011;29470;53.550;9.926;2023-01-26T03:18:15;54.63;;;18.42;;
43823;SDS011;29470;53.550;9.926;2023-01-26T03:23:36;60.47;;;20.00;;
43823;SDS011;29470;53.550;9.926;2023-01-26T03:28:59;59.10;;;18.88;;
43823;SDS011;29470;53.550;9.926;2023-01-26T03:34:02;58.78;;;18.75;;
43823;SDS011;29470;53.550;9.926;2023-01-26T03:39:06;66.80;;;20.60;;
43823;SDS011;29470;53.550;9.926;2023-01-26T03:44:10;65.22;;;21.17;;
43823;SDS011;29470;53.550;9.926;2023-01-26T03:49:31;57.65;;;18.58;;
43823;SDS011;29470;53.550;9.926;2023-01-26T03:54:53;65.88;;;21.63;;
43823;SDS011;29470;53.550;9.926;2023-01-26T04:00:14;65.78;;;21.13;;
43823;SDS011;29470;53.550;9.926;2023-01-26T04:05:19;57.25;;;19.23;;
43823;SDS011;29470;53.550;9.926;2023-01-26T04:10:40;60.85;;;20.58;;
43823;SDS011;29470;53.550;9.926;2023-01-26T04:15:45;64.57;;;20.85;;
43823;SDS011;29470;53.550;9.926;2023-01-26T04:21:06;65.22;;;19.73;;
43823;SDS011;29470;53.550;9.926;2023-01-26T04:26:27;54.85;;;19.50;;
43823;SDS011;29470;53.550;9.926;2023-01-26T04:31:38;55.83;;;19.13;;
43823;SDS011;29470;53.550;9.926;2023-01-26T04:36:42;54.88;;;17.13;;
43823;SDS011;29470;53.550;9.926;2023-01-26T04:41:47;43.75;;;15.90;;
43823;SDS011;29470;53.550;9.926;2023-01-26T04:46:52;49.70;;;16.25;;
43823;SDS011;29470;53.550;9.926;2023-01-26T04:51:55;50.00;;;16.33;;
43823;SDS011;29470;53.550;9.926;2023-01-26T04:56:59;44.60;;;15.82;;
43823;SDS011;29470;53.550;9.926;2023-01-26T05:02:04;46.95;;;16.15;;
43823;SDS011;29470;53.550;9.926;2023-01-26T05:07:07;44.97;;;15.65;;
43823;SDS011;29470;53.550;9.926;2023-01-26T05:12:10;41.38;;;14.15;;
43823;SDS011;29470;53.550;9.926;2023-01-26T05:17:51;43.88;;;15.82;;
43823;SDS011;29470;53.550;9.926;2023-01-26T05:23:09;48.55;;;16.35;;
43823;SDS011;29470;53.550;9.926;2023-01-26T05:28:35;44.67;;;14.23;;
43823;SDS011;29470;53.550;9.926;2023-01-26T05:33:39;40.83;;;15.15;;
43823;SDS011;29470;53.550;9.926;2023-01-26T05:38:45;46.15;;;15.20;;
43823;SDS011;29470;53.550;9.926;2023-01-26T05:43:50;44.33;;;15.20;;
43823;SDS011;29470;53.550;9.926;2023-01-26T05:49:11;40.65;;;14.13;;
43823;SDS011;29470;53.550;9.926;2023-01-26T05:54:15;39.33;;;14.43;;
43823;SDS011;29470;53.550;9.926;2023-01-26T05:59:18;35.58;;;13.27;;
43823;SDS011;29470;53.550;9.926;2023-01-26T06:04:22;44.65;;;16.25;;
43823;SDS011;29470;53.550;9.926;2023-01-26T06:09:28;39.22;;;15.38;;
43823;SDS011;29470;53.550;9.926;2023-01-26T06:15:00;42.03;;;15.38;;
43823;SDS011;29470;53.550;9.926;2023-01-26T06:20:11;37.13;;;13.07;;
43823;SDS011;29470;53.550;9.926;2023-01-26T06:30:21;38.38;;;13.70;;
43823;SDS011;29470;53.550;9.926;2023-01-26T06:35:25;41.45;;;15.10;;
43823;SDS011;29470;53.550;9.926;2023-01-26T06:40:31;41.35;;;14.38;;
43823;SDS011;29470;53.550;9.926;2023-01-26T06:45:35;40.88;;;13.75;;
43823;SDS011;29470;53.550;9.926;2023-01-26T06:50:39;43.55;;;15.07;;
43823;SDS011;29470;53.550;9.926;2023-01-26T06:55:42;42.72;;;14.15;;
43823;SDS011;29470;53.550;9.926;2023-01-26T07:01:05;39.78;;;13.98;;
43823;SDS011;29470;53.550;9.926;2023-01-26T07:06:11;43.08;;;14.13;;
43823;SDS011;29470;53.550;9.926;2023-01-26T07:11:14;38.50;;;13.48;;
43823;SDS011;29470;53.550;9.926;2023-01-26T07:16:17;38.53;;;13.82;;
43823;SDS011;29470;53.550;9.926;2023-01-26T07:21:22;38.60;;;13.25;;
43823;SDS011;29470;53.550;9.926;2023-01-26T07:26:25;40.15;;;14.13;;
43823;SDS011;29470;53.550;9.926;2023-01-26T07:31:27;35.50;;;13.48;;
43823;SDS011;29470;53.550;9.926;2023-01-26T07:36:32;35.97;;;13.25;;
43823;SDS011;29470;53.550;9.926;2023-01-26T07:41:35;38.78;;;13.43;;
43823;SDS011;29470;53.550;9.926;2023-01-26T07:46:56;37.15;;;14.23;;
43823;SDS011;29470;53.550;9.926;2023-01-26T07:52:01;35.38;;;12.65;;
43823;SDS011;29470;53.550;9.926;2023-01-26T07:57:05;34.80;;;13.18;;
43823;SDS011;29470;53.550;9.926;2023-01-26T08:02:08;35.78;;;12.80;;
43823;SDS011;29470;53.550;9.926;2023-01-26T08:07:20;33.70;;;12.95;;
43823;SDS011;29470;53.550;9.926;2023-01-26T08:12:33;37.80;;;12.82;;
43823;SDS011;29470;53.550;9.926;2023-01-26T08:17:41;34.92;;;13.52;;
43823;SDS011;29470;53.550;9.926;2023-01-26T08:22:45;34.30;;;11.38;;
43823;SDS011;29470;53.550;9.926;2023-01-26T08:28:04;39.53;;;13.43;;
43823;SDS011;29470;53.550;9.926;2023-01-26T08:33:06;33.63;;;12.60;;
43823;SDS011;29470;53.550;9.926;2023-01-26T08:38:14;32.53;;;12.88;;
43823;SDS011;29470;53.550;9.926;2023-01-26T08:43:22;39.85;;;13.15;;
43823;SDS011;29470;53.550;9.926;2023-01-26T08:48:25;43.38;;;13.07;;
43823;SDS011;29470;53.550;9.926;2023-01-26T08:53:40;43.97;;;13.45;;
43823;SDS011;29470;53.550;9.926;2023-01-26T08:58:43;35.10;;;11.48;;
43823;SDS011;29470;53.550;9.926;2023-01-26T09:03:46;33.20;;;10.50;;
43823;SDS011;29470;53.550;9.926;2023-01-26T09:08:50;103.97;;;19.48;;
43823;SDS011;29470;53.550;9.926;2023-01-26T09:13:53;25.40;;;9.45;;
43823;SDS011;29470;53.550;9.926;2023-01-26T09:18:57;23.98;;;8.95;;
43823;SDS011;29470;53.550;9.926;2023-01-26T09:24:02;25.15;;;9.07;;
43823;SDS011;29470;53.550;9.926;2023-01-26T09:29:04;22.42;;;9.13;;
43823;SDS011;29470;53.550;9.926;2023-01-26T09:34:07;22.15;;;9.13;;
43823;SDS011;29470;53.550;9.926;2023-01-26T09:39:12;21.08;;;8.27;;
43823;SDS011;29470;53.550;9.926;2023-01-26T09:44:15;19.33;;;8.20;;
43823;SDS011;29470;53.550;9.926;2023-01-26T09:49:22;17.88;;;7.38;;
43823;SDS011;29470;53.550;9.926;2023-01-26T09:54:32;31.30;;;8.75;;
43823;SDS011;29470;53.550;9.926;2023-01-26T09:59:40;19.00;;;7.57;;
43823;SDS011;29470;53.550;9.926;2023-01-26T10:04:50;18.02;;;7.40;;
43823;SDS011;29470;53.550;9.926;2023-01-26T10:10:00;18.70;;;7.57;;
43823;SDS011;29470;53.550;9.926;2023-01-26T10:15:09;19.08;;;8.52;;
43823;SDS011;29470;53.550;9.926;2023-01-26T10:20:33;23.42;;;9.82;;
43823;SDS011;29470;53.550;9.926;2023-01-26T10:25:40;20.50;;;8.05;;
43823;SDS011;29470;53.550;9.926;2023-01-26T10:30:45;21.95;;;8.95;;
43823;SDS011;29470;53.550;9.926;2023-01-26T10:35:49;21.40;;;8.73;;
43823;SDS011;29470;53.550;9.926;2023-01-26T10:40:53;26.27;;;9.82;;
43823;SDS011;29470;53.550;9.926;2023-01-26T10:45:56;22.05;;;8.50;;
43823;SDS011;29470;53.550;9.926;2023-01-26T10:51:12;28.50;;;9.52;;
43823;SDS011;29470;53.550;9.926;2023-01-26T10:56:17;24.65;;;8.88;;
43823;SDS011;29470;53.550;9.926;2023-01-26T11:01:20;26.52;;;9.98;;
43823;SDS011;29470;53.550;9.926;2023-01-26T11:06:28;26.00;;;9.13;;
43823;SDS011;29470;53.550;9.926;2023-01-26T11:11:32;28.75;;;10.02;;
43823;SDS011;29470;53.550;9.926;2023-01-26T11:16:35;28.95;;;10.10;;
43823;SDS011;29470;53.550;9.926;2023-01-26T11:21:39;30.10;;;9.48;;
43823;SDS011;29470;53.550;9.926;2023-01-26T11:32:32;32.05;;;11.40;;
43823;SDS011;29470;53.550;9.926;2023-01-26T11:37:44;29.67;;;9.60;;
43823;SDS011;29470;53.550;9.926;2023-01-26T11:43:01;29.33;;;9.45;;
43823;SDS011;29470;53.550;9.926;2023-01-26T11:48:30;29.73;;;10.63;;
43823;SDS011;29470;53.550;9.926;2023-01-26T11:53:46;33.88;;;11.05;;
43823;SDS011;29470;53.550;9.926;2023-01-26T11:59:04;37.67;;;10.07;;
43823;SDS011;29470;53.550;9.926;2023-01-26T12:04:14;29.90;;;10.05;;
43823;SDS011;29470;53.550;9.926;2023-01-26T12:09:21;37.70;;;13.50;;
43823;SDS011;29470;53.550;9.926;2023-01-26T12:14:35;32.17;;;9.85;;
43823;SDS011;29470;53.550;9.926;2023-01-26T12:19:45;38.72;;;12.35;;
43823;SDS011;29470;53.550;9.926;2023-01-26T12:24:55;28.25;;;10.45;;
43823;SDS011;29470;53.550;9.926;2023-01-26T12:30:28;28.73;;;10.43;;
43823;SDS011;29470;53.550;9.926;2023-01-26T12:35:45;38.60;;;11.88;;
43823;SDS011;29470;53.550;9.926;2023-01-26T12:41:05;32.10;;;9.63;;
43823;SDS011;29470;53.550;9.926;2023-01-26T12:46:14;29.33;;;9.13;;
43823;SDS011;29470;53.550;9.926;2023-01-26T12:51:19;28.25;;;8.88;;
43823;SDS011;29470;53.550;9.926;2023-01-26T12:56:28;24.98;;;9.77;;
43823;SDS011;29470;53.550;9.926;2023-01-26T13:01:38;26.60;;;8.63;;
43823;SDS011;29470;53.550;9.926;2023-01-26T13:06:43;23.13;;;8.80;;
43823;SDS011;29470;53.550;9.926;2023-01-26T13:11:47;22.38;;;7.22;;
43823;SDS011;29470;53.550;9.926;2023-01-26T13:16:53;21.67;;;7.00;;
43823;SDS011;29470;53.550;9.926;2023-01-26T13:21:56;18.95;;;7.03;;
43823;SDS011;29470;53.550;9.926;2023-01-26T13:26:59;21.77;;;6.97;;
43823;SDS011;29470;53.550;9.926;2023-01-26T13:37:58;19.92;;;7.32;;
43823;SDS011;29470;53.550;9.926;2023-01-26T13:43:07;14.35;;;5.75;;
43823;SDS011;29470;53.550;9.926;2023-01-26T13:53:53;23.67;;;6.30;;
43823;SDS011;29470;53.550;9.926;2023-01-26T13:59:03;18.27;;;6.10;;
43823;SDS011;29470;53.550;9.926;2023-01-26T14:04:12;16.08;;;6.80;;
43823;SDS011;29470;53.550;9.926;2023-01-26T14:09:17;16.93;;;5.87;;
43823;SDS011;29470;53.550;9.926;2023-01-26T14:14:22;19.15;;;6.38;;
43823;SDS011;29470;53.550;9.926;2023-01-26T14:19:27;21.90;;;6.65;;
43823;SDS011;29470;53.550;9.926;2023-01-26T14:24:32;18.83;;;6.47;;
43823;SDS011;29470;53.550;9.926;2023-01-26T14:29:36;19.25;;;6.53;;
43823;SDS011;29470;53.550;9.926;2023-01-26T14:34:49;19.75;;;6.60;;
43823;SDS011;29470;53.550;9.926;2023-01-26T14:45:23;20.88;;;6.85;;
43823;SDS011;29470;53.550;9.926;2023-01-26T14:50:31;17.13;;;6.22;;
43823;SDS011;29470;53.550;9.926;2023-01-26T14:55:36;20.30;;;7.10;;
43823;SDS011;29470;53.550;9.926;2023-01-26T15:00:39;21.33;;;6.75;;
43823;SDS011;29470;53.550;9.926;2023-01-26T15:05:42;22.92;;;8.45;;
43823;SDS011;29470;53.550;9.926;2023-01-26T15:10:54;21.52;;;8.60;;
43823;SDS011;29470;53.550;9.926;2023-01-26T15:16:20;20.95;;;8.45;;
43823;SDS011;29470;53.550;9.926;2023-01-26T15:21:27;21.48;;;8.55;;
43823;SDS011;29470;53.550;9.926;2023-01-26T15:26:35;21.80;;;7.82;;
43823;SDS011;29470;53.550;9.926;2023-01-26T15:31:39;27.48;;;10.13;;
43823;SDS011;29470;53.550;9.926;2023-01-26T15:36:46;21.95;;;8.52;;
43823;SDS011;29470;53.550;9.926;2023-01-26T15:41:59;22.25;;;8.15;;
43823;SDS011;29470;53.550;9.926;2023-01-26T15:47:12;28.67;;;9.70;;
43823;SDS011;29470;53.550;9.926;2023-01-26T15:52:16;25.13;;;9.85;;
43823;SDS011;29470;53.550;9.926;2023-01-26T15:57:21;19.05;;;8.30;;
43823;SDS011;29470;53.550;9.926;2023-01-26T16:02:26;18.80;;;8.70;;
43823;SDS011;29470;53.550;9.926;2023-01-26T16:07:29;20.30;;;7.95;;
43823;SDS011;29470;53.550;9.926;2023-01-26T16:12:34;19.73;;;9.38;;
43823;SDS011;29470;53.550;9.926;2023-01-26T16:17:37;22.42;;;9.73;;
43823;SDS011;29470;53.550;9.926;2023-01-26T16:22:39;20.30;;;9.45;;
43823;SDS011;29470;53.550;9.926;2023-01-26T16:27:44;26.40;;;10.63;;
43823;SDS011;29470;53.550;9.926;2023-01-26T16:32:46;24.05;;;9.82;;
43823;SDS011;29470;53.550;9.926;2023-01-26T16:37:50;32.28;;;11.88;;
43823;SDS011;29470;53.550;9.926;2023-01-26T16:42:54;28.42;;;12.20;;
43823;SDS011;29470;53.550;9.926;2023-01-26T16:47:57;31.23;;;11.07;;
43823;SDS011;29470;53.550;9.926;2023-01-26T16:53:01;26.67;;;10.88;;
43823;SDS011;29470;53.550;9.926;2023-01-26T16:58:17;27.77;;;10.95;;
43823;SDS011;29470;53.550;9.926;2023-01-26T17:03:20;26.83;;;10.48;;
43823;SDS011;29470;53.550;9.926;2023-01-26T17:08:23;30.40;;;11.23;;
43823;SDS011;29470;53.550;9.926;2023-01-26T17:13:27;26.92;;;9.90;;
43823;SDS011;29470;53.550;9.926;2023-01-26T17:18:31;20.23;;;8.65;;
43823;SDS011;29470;53.550;9.926;2023-01-26T17:23:35;21.25;;;8.43;;
43823;SDS011;29470;53.550;9.926;2023-01-26T17:28:43;26.45;;;10.73;;
43823;SDS011;29470;53.550;9.926;2023-01-26T17:33:47;20.42;;;8.90;;
43823;SDS011;29470;53.550;9.926;2023-01-26T17:38:52;17.70;;;8.43;;
43823;SDS011;29470;53.550;9.926;2023-01-26T17:43:56;17.38;;;7.60;;
43823;SDS011;29470;53.550;9.926;2023-01-26T17:48:58;16.13;;;6.80;;
43823;SDS011;29470;53.550;9.926;2023-01-26T17:54:01;17.75;;;7.65;;
43823;SDS011;29470;53.550;9.926;2023-01-26T17:59:05;17.90;;;7.22;;
43823;SDS011;29470;53.550;9.926;2023-01-26T18:04:08;17.58;;;7.07;;
43823;SDS011;29470;53.550;9.926;2023-01-26T18:09:11;18.55;;;7.65;;
43823;SDS011;29470;53.550;9.926;2023-01-26T18:14:15;18.70;;;7.60;;
43823;SDS011;29470;53.550;9.926;2023-01-26T18:19:18;20.73;;;6.85;;
43823;SDS011;29470;53.550;9.926;2023-01-26T18:24:21;16.40;;;7.28;;
43823;SDS011;29470;53.550;9.926;2023-01-26T18:29:25;17.20;;;6.70;;
43823;SDS011;29470;53.550;9.926;2023-01-26T18:34:28;12.65;;;6.10;;
43823;SDS011;29470;53.550;9.926;2023-01-26T18:39:31;21.20;;;7.63;;
43823;SDS011;29470;53.550;9.926;2023-01-26T18:44:35;22.45;;;7.50;;
43823;SDS011;29470;53.550;9.926;2023-01-26T18:49:38;22.55;;;6.97;;
43823;SDS011;29470;53.550;9.926;2023-01-26T18:54:40;21.85;;;9.02;;
43823;SDS011;29470;53.550;9.926;2023-01-26T18:59:45;21.83;;;7.68;;
43823;SDS011;29470;53.550;9.926;2023-01-26T19:04:48;21.38;;;7.72;;
43823;SDS011;29470;53.550;9.926;2023-01-26T19:09:53;19.45;;;8.05;;
43823;SDS011;29470;53.550;9.926;2023-01-26T19:14:59;20.85;;;8.13;;
43823;SDS011;29470;53.550;9.926;2023-01-26T19:20:02;26.20;;;8.23;;
43823;SDS011;29470;53.550;9.926;2023-01-26T19:25:06;18.38;;;7.50;;
43823;SDS011;29470;53.550;9.926;2023-01-26T19:30:13;23.95;;;9.60;;
43823;SDS011;29470;53.550;9.926;2023-01-26T19:35:17;23.02;;;8.68;;
43823;SDS011;29470;53.550;9.926;2023-01-26T19:40:20;24.52;;;8.88;;
43823;SDS011;29470;53.550;9.926;2023-01-26T19:45:25;24.95;;;9.20;;
43823;SDS011;29470;53.550;9.926;2023-01-26T19:50:28;23.40;;;9.48;;
43823;SDS011;29470;53.550;9.926;2023-01-26T19:55:35;26.58;;;9.65;;
43823;SDS011;29470;53.550;9.926;2023-01-26T20:00:40;25.30;;;10.60;;
43823;SDS011;29470;53.550;9.926;2023-01-26T20:05:45;24.63;;;9.23;;
43823;SDS011;29470;53.550;9.926;2023-01-26T20:10:48;23.73;;;9.77;;
43823;SDS011;29470;53.550;9.926;2023-01-26T20:15:54;17.90;;;8.95;;
43823;SDS011;29470;53.550;9.926;2023-01-26T20:20:58;17.65;;;7.75;;
43823;SDS011;29470;53.550;9.926;2023-01-26T20:26:04;22.05;;;9.20;;
43823;SDS011;29470;53.550;9.926;2023-01-26T20:31:11;20.10;;;8.83;;
43823;SDS011;29470;53.550;9.926;2023-01-26T20:36:17;16.48;;;8.15;;
43823;SDS011;29470;53.550;9.926;2023-01-26T20:41:23;18.15;;;8.88;;
43823;SDS011;29470;53.550;9.926;2023-01-26T20:46:32;18.40;;;9.02;;
43823;SDS011;29470;53.550;9.926;2023-01-26T20:51:49;19.58;;;9.02;;
43823;SDS011;29470;53.550;9.926;2023-01-26T20:56:54;18.95;;;8.93;;
43823;SDS011;29470;53.550;9.926;2023-01-26T21:01:59;18.23;;;9.48;;
43823;SDS011;29470;53.550;9.926;2023-01-26T21:07:02;25.23;;;10.13;;
43823;SDS011;29470;53.550;9.926;2023-01-26T21:12:05;20.30;;;9.65;;
43823;SDS011;29470;53.550;9.926;2023-01-26T21:17:09;16.92;;;8.68;;
43823;SDS011;29470;53.550;9.926;2023-01-26T21:22:12;16.80;;;8.23;;
43823;SDS011;29470;53.550;9.926;2023-01-26T21:27:15;17.67;;;8.35;;
43823;SDS011;29470;53.550;9.926;2023-01-26T21:32:24;15.15;;;7.18;;
43823;SDS011;29470;53.550;9.926;2023-01-26T21:37:36;16.70;;;7.40;;
43823;SDS011;29470;53.550;9.926;2023-01-26T21:42:39;13.63;;;7.00;;
43823;SDS011;29470;53.550;9.926;2023-01-26T21:47:43;12.32;;;6.63;;
43823;SDS011;29470;53.550;9.926;2023-01-26T21:53:06;13.48;;;6.85;;
43823;SDS011;29470;53.550;9.926;2023-01-26T21:58:09;10.50;;;6.15;;
43823;SDS011;29470;53.550;9.926;2023-01-26T22:03:30;13.10;;;6.22;;
43823;SDS011;29470;53.550;9.926;2023-01-26T22:08:33;11.52;;;5.80;;
43823;SDS011;29470;53.550;9.926;2023-01-26T22:13:36;11.57;;;5.63;;
43823;SDS011;29470;53.550;9.926;2023-01-26T22:18:40;9.85;;;4.75;;
43823;SDS011;29470;53.550;9.926;2023-01-26T22:23:44;9.77;;;5.30;;
43823;SDS011;29470;53.550;9.926;2023-01-26T22:28:50;8.23;;;4.70;;
43823;SDS011;29470;53.550;9.926;2023-01-26T22:33:56;8.15;;;4.55;;
43823;SDS011;29470;53.550;9.926;2023-01-26T22:39:00;8.63;;;4.05;;
43823;SDS011;29470;53.550;9.926;2023-01-26T22:44:03;8.23;;;4.25;;
43823;SDS011;29470;53.550;9.926;2023-01-26T22:49:08;9.18;;;4.32;;
43823;SDS011;29470;53.550;9.926;2023-01-26T22:54:11;6.50;;;3.60;;
43823;SDS011;29470;53.550;9.926;2023-01-26T22:59:14;6.70;;;3.30;;
43823;SDS011;29470;53.550;9.926;2023-01-26T23:04:18;6.53;;;3.10;;
43823;SDS011;29470;53.550;9.926;2023-01-26T23:09:21;4.20;;;2.60;;
43823;SDS011;29470;53.550;9.926;2023-01-26T23:14:32;4.78;;;2.42;;
43823;SDS011;29470;53.550;9.926;2023-01-26T23:19:36;4.60;;;2.50;;
43823;SDS011;29470;53.550;9.926;2023-01-26T23:24:39;4.70;;;2.10;;
43823;SDS011;29470;53.550;9.926;2023-01-26T23:30:02;4.57;;;2.47;;
43823;SDS011;29470;53.550;9.926;2023-01-26T23:35:07;4.82;;;2.00;;
43823;SDS011;29470;53.550;9.926;2023-01-26T23:40:11;4.55;;;2.15;;
43823;SDS011;29470;53.550;9.926;2023-01-26T23:45:15;4.57;;;2.38;;
43823;SDS011;29470;53.550;9.926;2023-01-26T23:50:19;3.65;;;2.10;;
43823;SDS011;29470;53.550;9.926;2023-01-26T23:55:22;6.20;;;2.40;;
